sensor_id;sensor_type;location;lat;lon;timestamp;temperature;humidity
13673;DHT22;6909;52.202;9.876;2022-11-24T00:01:02;6.60;99.90
13673;DHT22;6909;52.202;9.876;2022-11-24T00:03:29;6.70;99.90
13673;DHT22;6909;52.202;9.876;2022-11-24T00:06:01;6.70;99.90
13673;DHT22;6909;52.202;9.876;2022-11-24T00:08:28;6.70;99.90
13673;DHT22;6909;52.202;9.876;2022-11-24T00:10:55;6.70;99.90
13673;DHT22;6909;52.202;9.876;2022-11-24T00:13:21;6.80;99.90
13673;DHT22;6909;52.202;9.876;2022-11-24T00:15:48;6.80;99.90
13673;DHT22;6909;52.202;9.876;2022-11-24T00:18:15;6.90;99.90
13673;DHT22;6909;52.202;9.876;2022-11-24T00:20:41;6.80;99.90
13673;DHT22;6909;52.202;9.876;2022-11-24T00:23:09;6.80;99.90
13673;DHT22;6909;52.202;9.876;2022-11-24T00:25:36;6.70;99.90
13673;DHT22;6909;52.202;9.876;2022-11-24T00:28:03;6.70;99.90
13673;DHT22;6909;52.202;9.876;2022-11-24T00:30:30;6.80;99.90
13673;DHT22;6909;52.202;9.876;2022-11-24T00:32:59;6.80;99.90
13673;DHT22;6909;52.202;9.876;2022-11-24T00:35:25;6.80;99.90
13673;DHT22;6909;52.202;9.876;2022-11-24T00:37:54;6.80;99.90
13673;DHT22;6909;52.202;9.876;2022-11-24T00:40:22;6.80;99.90
13673;DHT22;6909;52.202;9.876;2022-11-24T00:42:49;6.80;99.90
13673;DHT22;6909;52.202;9.876;2022-11-24T00:45:15;6.80;99.90
13673;DHT22;6909;52.202;9.876;2022-11-24T00:47:42;6.80;99.90
13673;DHT22;6909;52.202;9.876;2022-11-24T00:50:09;6.70;99.90
13673;DHT22;6909;52.202;9.876;2022-11-24T00:52:36;6.70;99.90
13673;DHT22;6909;52.202;9.876;2022-11-24T00:55:03;6.70;99.90
13673;DHT22;6909;52.202;9.876;2022-11-24T00:57:33;6.70;99.90
13673;DHT22;6909;52.202;9.876;2022-11-24T01:00:00;6.70;99.90
13673;DHT22;6909;52.202;9.876;2022-11-24T01:02:26;6.70;99.90
13673;DHT22;6909;52.202;9.876;2022-11-24T01:04:53;6.80;99.90
13673;DHT22;6909;52.202;9.876;2022-11-24T01:07:20;6.80;99.90
13673;DHT22;6909;52.202;9.876;2022-11-24T01:09:47;6.80;99.90
13673;DHT22;6909;52.202;9.876;2022-11-24T01:12:13;6.80;99.90
13673;DHT22;6909;52.202;9.876;2022-11-24T01:14:41;6.80;99.90
13673;DHT22;6909;52.202;9.876;2022-11-24T01:17:08;6.80;99.90
13673;DHT22;6909;52.202;9.876;2022-11-24T01:19:35;6.80;99.90
13673;DHT22;6909;52.202;9.876;2022-11-24T01:22:01;6.80;99.90
13673;DHT22;6909;52.202;9.876;2022-11-24T01:24:28;6.80;99.90
13673;DHT22;6909;52.202;9.876;2022-11-24T01:26:55;6.90;99.90
13673;DHT22;6909;52.202;9.876;2022-11-24T01:29:22;6.90;99.90
13673;DHT22;6909;52.202;9.876;2022-11-24T01:31:51;6.90;99.90
13673;DHT22;6909;52.202;9.876;2022-11-24T01:34:18;6.80;99.90
13673;DHT22;6909;52.202;9.876;2022-11-24T01:36:45;6.70;99.90
13673;DHT22;6909;52.202;9.876;2022-11-24T01:39:11;6.70;99.90
13673;DHT22;6909;52.202;9.876;2022-11-24T01:41:38;6.60;99.90
13673;DHT22;6909;52.202;9.876;2022-11-24T01:44:22;6.70;99.90
13673;DHT22;6909;52.202;9.876;2022-11-24T01:46:54;6.70;99.90
13673;DHT22;6909;52.202;9.876;2022-11-24T01:49:25;6.70;99.90
13673;DHT22;6909;52.202;9.876;2022-11-24T01:51:57;6.70;99.90
13673;DHT22;6909;52.202;9.876;2022-11-24T01:54:26;6.80;99.90
13673;DHT22;6909;52.202;9.876;2022-11-24T01:56:57;6.70;99.90
13673;DHT22;6909;52.202;9.876;2022-11-24T01:59:25;6.60;99.90
13673;DHT22;6909;52.202;9.876;2022-11-24T02:01:55;6.50;99.90
13673;DHT22;6909;52.202;9.876;2022-11-24T02:04:25;6.50;99.90
13673;DHT22;6909;52.202;9.876;2022-11-24T02:06:56;6.40;99.90
13673;DHT22;6909;52.202;9.876;2022-11-24T02:09:27;6.40;99.90
13673;DHT22;6909;52.202;9.876;2022-11-24T02:11:56;6.50;99.90
13673;DHT22;6909;52.202;9.876;2022-11-24T02:14:24;6.60;99.90
13673;DHT22;6909;52.202;9.876;2022-11-24T02:16:52;6.60;99.90
13673;DHT22;6909;52.202;9.876;2022-11-24T02:19:27;6.60;99.90
13673;DHT22;6909;52.202;9.876;2022-11-24T02:21:56;6.60;99.90
13673;DHT22;6909;52.202;9.876;2022-11-24T02:24:27;6.70;99.90
13673;DHT22;6909;52.202;9.876;2022-11-24T02:27:00;6.70;99.90
13673;DHT22;6909;52.202;9.876;2022-11-24T02:29:26;6.70;99.90
13673;DHT22;6909;52.202;9.876;2022-11-24T02:31:58;6.80;99.90
13673;DHT22;6909;52.202;9.876;2022-11-24T02:34:26;6.80;99.90
13673;DHT22;6909;52.202;9.876;2022-11-24T02:36:53;6.80;99.90
13673;DHT22;6909;52.202;9.876;2022-11-24T02:39:20;6.90;99.90
13673;DHT22;6909;52.202;9.876;2022-11-24T02:41:49;6.90;99.90
13673;DHT22;6909;52.202;9.876;2022-11-24T02:44:19;6.90;99.90
13673;DHT22;6909;52.202;9.876;2022-11-24T02:46:47;6.90;99.90
13673;DHT22;6909;52.202;9.876;2022-11-24T02:49:14;6.90;99.90
13673;DHT22;6909;52.202;9.876;2022-11-24T02:51:41;7.00;99.90
13673;DHT22;6909;52.202;9.876;2022-11-24T02:54:07;7.00;99.90
13673;DHT22;6909;52.202;9.876;2022-11-24T02:56:34;7.10;99.90
13673;DHT22;6909;52.202;9.876;2022-11-24T02:59:01;7.10;99.90
13673;DHT22;6909;52.202;9.876;2022-11-24T03:01:29;7.10;99.90
13673;DHT22;6909;52.202;9.876;2022-11-24T03:03:56;7.10;99.90
13673;DHT22;6909;52.202;9.876;2022-11-24T03:06:22;7.10;99.90
13673;DHT22;6909;52.202;9.876;2022-11-24T03:08:49;7.10;99.90
13673;DHT22;6909;52.202;9.876;2022-11-24T03:11:16;7.10;99.90
13673;DHT22;6909;52.202;9.876;2022-11-24T03:13:43;7.10;99.90
13673;DHT22;6909;52.202;9.876;2022-11-24T03:16:09;7.20;99.90
13673;DHT22;6909;52.202;9.876;2022-11-24T03:18:37;7.20;99.90
13673;DHT22;6909;52.202;9.876;2022-11-24T03:21:04;7.20;99.90
13673;DHT22;6909;52.202;9.876;2022-11-24T03:23:31;7.30;99.90
13673;DHT22;6909;52.202;9.876;2022-11-24T03:26:06;7.30;99.90
13673;DHT22;6909;52.202;9.876;2022-11-24T03:28:33;7.30;99.90
13673;DHT22;6909;52.202;9.876;2022-11-24T03:31:00;7.20;99.90
13673;DHT22;6909;52.202;9.876;2022-11-24T03:33:27;7.20;99.90
13673;DHT22;6909;52.202;9.876;2022-11-24T03:35:55;7.20;99.90
13673;DHT22;6909;52.202;9.876;2022-11-24T03:38:22;7.20;99.90
13673;DHT22;6909;52.202;9.876;2022-11-24T03:40:49;7.20;99.90
13673;DHT22;6909;52.202;9.876;2022-11-24T03:43:16;7.20;99.90
13673;DHT22;6909;52.202;9.876;2022-11-24T03:45:44;7.10;99.90
13673;DHT22;6909;52.202;9.876;2022-11-24T03:48:11;7.20;99.90
13673;DHT22;6909;52.202;9.876;2022-11-24T03:50:38;7.10;99.90
13673;DHT22;6909;52.202;9.876;2022-11-24T03:53:06;7.10;99.90
13673;DHT22;6909;52.202;9.876;2022-11-24T03:55:33;7.00;99.90
13673;DHT22;6909;52.202;9.876;2022-11-24T03:58:00;6.90;99.90
13673;DHT22;6909;52.202;9.876;2022-11-24T04:00:27;6.80;99.90
13673;DHT22;6909;52.202;9.876;2022-11-24T04:02:54;6.80;99.90
13673;DHT22;6909;52.202;9.876;2022-11-24T04:05:20;6.80;99.90
13673;DHT22;6909;52.202;9.876;2022-11-24T04:07:47;6.80;99.90
13673;DHT22;6909;52.202;9.876;2022-11-24T04:10:15;6.80;99.90
13673;DHT22;6909;52.202;9.876;2022-11-24T04:12:42;6.80;99.90
13673;DHT22;6909;52.202;9.876;2022-11-24T04:15:13;6.80;99.90
13673;DHT22;6909;52.202;9.876;2022-11-24T04:17:40;6.70;99.90
13673;DHT22;6909;52.202;9.876;2022-11-24T04:20:09;6.60;99.90
13673;DHT22;6909;52.202;9.876;2022-11-24T04:22:36;6.50;99.90
13673;DHT22;6909;52.202;9.876;2022-11-24T04:25:04;6.30;99.90
13673;DHT22;6909;52.202;9.876;2022-11-24T04:27:33;6.10;99.90
13673;DHT22;6909;52.202;9.876;2022-11-24T04:30:00;6.00;99.90
13673;DHT22;6909;52.202;9.876;2022-11-24T04:32:27;6.00;99.90
13673;DHT22;6909;52.202;9.876;2022-11-24T04:34:53;6.10;99.90
13673;DHT22;6909;52.202;9.876;2022-11-24T04:37:20;6.10;99.90
13673;DHT22;6909;52.202;9.876;2022-11-24T04:39:47;6.20;99.90
13673;DHT22;6909;52.202;9.876;2022-11-24T04:42:13;6.20;99.90
13673;DHT22;6909;52.202;9.876;2022-11-24T04:44:42;6.20;99.90
13673;DHT22;6909;52.202;9.876;2022-11-24T04:47:12;6.30;99.90
13673;DHT22;6909;52.202;9.876;2022-11-24T04:49:41;6.40;99.90
13673;DHT22;6909;52.202;9.876;2022-11-24T04:52:07;6.50;99.90
13673;DHT22;6909;52.202;9.876;2022-11-24T04:54:34;6.50;99.90
13673;DHT22;6909;52.202;9.876;2022-11-24T04:57:02;6.50;99.90
13673;DHT22;6909;52.202;9.876;2022-11-24T04:59:28;6.40;99.90
13673;DHT22;6909;52.202;9.876;2022-11-24T05:01:57;6.40;99.90
13673;DHT22;6909;52.202;9.876;2022-11-24T05:04:23;6.40;99.90
13673;DHT22;6909;52.202;9.876;2022-11-24T05:06:50;6.40;99.90
13673;DHT22;6909;52.202;9.876;2022-11-24T05:09:17;6.50;99.90
13673;DHT22;6909;52.202;9.876;2022-11-24T05:11:43;6.40;99.90
13673;DHT22;6909;52.202;9.876;2022-11-24T05:14:10;6.40;99.90
13673;DHT22;6909;52.202;9.876;2022-11-24T05:16:37;6.50;99.90
13673;DHT22;6909;52.202;9.876;2022-11-24T05:19:05;6.50;99.90
13673;DHT22;6909;52.202;9.876;2022-11-24T05:21:32;6.60;99.90
13673;DHT22;6909;52.202;9.876;2022-11-24T05:23:58;6.70;99.90
13673;DHT22;6909;52.202;9.876;2022-11-24T05:26:25;6.70;99.90
13673;DHT22;6909;52.202;9.876;2022-11-24T05:28:52;6.60;99.90
13673;DHT22;6909;52.202;9.876;2022-11-24T05:31:19;6.50;99.90
13673;DHT22;6909;52.202;9.876;2022-11-24T05:33:46;6.40;99.90
13673;DHT22;6909;52.202;9.876;2022-11-24T05:36:14;6.40;99.90
13673;DHT22;6909;52.202;9.876;2022-11-24T05:38:55;6.50;99.90
13673;DHT22;6909;52.202;9.876;2022-11-24T05:41:21;6.60;99.90
13673;DHT22;6909;52.202;9.876;2022-11-24T05:43:48;6.50;99.90
13673;DHT22;6909;52.202;9.876;2022-11-24T05:46:15;6.60;99.90
13673;DHT22;6909;52.202;9.876;2022-11-24T05:48:42;6.60;99.90
13673;DHT22;6909;52.202;9.876;2022-11-24T05:51:08;6.60;99.90
13673;DHT22;6909;52.202;9.876;2022-11-24T05:53:36;6.70;99.90
13673;DHT22;6909;52.202;9.876;2022-11-24T05:56:04;6.70;99.90
13673;DHT22;6909;52.202;9.876;2022-11-24T05:58:31;6.70;99.90
13673;DHT22;6909;52.202;9.876;2022-11-24T06:00:57;6.70;99.90
13673;DHT22;6909;52.202;9.876;2022-11-24T06:03:24;6.60;99.90
13673;DHT22;6909;52.202;9.876;2022-11-24T06:05:51;6.50;99.90
13673;DHT22;6909;52.202;9.876;2022-11-24T06:08:18;6.40;99.90
13673;DHT22;6909;52.202;9.876;2022-11-24T06:10:46;6.30;99.90
13673;DHT22;6909;52.202;9.876;2022-11-24T06:13:12;6.20;99.90
13673;DHT22;6909;52.202;9.876;2022-11-24T06:15:39;6.20;99.90
13673;DHT22;6909;52.202;9.876;2022-11-24T06:18:06;6.30;99.90
13673;DHT22;6909;52.202;9.876;2022-11-24T06:20:33;6.40;99.90
13673;DHT22;6909;52.202;9.876;2022-11-24T06:23:00;6.50;99.90
13673;DHT22;6909;52.202;9.876;2022-11-24T06:25:27;6.60;99.90
13673;DHT22;6909;52.202;9.876;2022-11-24T06:27:55;6.60;99.90
13673;DHT22;6909;52.202;9.876;2022-11-24T06:30:22;6.50;99.90
13673;DHT22;6909;52.202;9.876;2022-11-24T06:32:53;6.50;99.90
13673;DHT22;6909;52.202;9.876;2022-11-24T06:35:20;6.50;99.90
13673;DHT22;6909;52.202;9.876;2022-11-24T06:37:46;6.40;99.90
13673;DHT22;6909;52.202;9.876;2022-11-24T06:40:13;6.30;99.90
13673;DHT22;6909;52.202;9.876;2022-11-24T06:42:40;6.30;99.90
13673;DHT22;6909;52.202;9.876;2022-11-24T06:45:09;6.30;99.90
13673;DHT22;6909;52.202;9.876;2022-11-24T06:47:36;6.30;99.90
13673;DHT22;6909;52.202;9.876;2022-11-24T06:50:03;6.10;99.90
13673;DHT22;6909;52.202;9.876;2022-11-24T06:52:30;6.10;99.90
13673;DHT22;6909;52.202;9.876;2022-11-24T06:54:56;6.00;99.90
13673;DHT22;6909;52.202;9.876;2022-11-24T06:57:23;6.10;99.90
13673;DHT22;6909;52.202;9.876;2022-11-24T06:59:50;6.20;99.90
13673;DHT22;6909;52.202;9.876;2022-11-24T07:02:19;6.30;99.90
13673;DHT22;6909;52.202;9.876;2022-11-24T07:04:49;6.40;99.90
13673;DHT22;6909;52.202;9.876;2022-11-24T07:07:16;6.40;99.90
13673;DHT22;6909;52.202;9.876;2022-11-24T07:09:42;6.50;99.90
13673;DHT22;6909;52.202;9.876;2022-11-24T07:12:09;6.70;99.90
13673;DHT22;6909;52.202;9.876;2022-11-24T07:14:36;6.70;99.90
13673;DHT22;6909;52.202;9.876;2022-11-24T07:17:02;6.80;99.90
13673;DHT22;6909;52.202;9.876;2022-11-24T07:19:31;6.90;99.90
13673;DHT22;6909;52.202;9.876;2022-11-24T07:21:58;6.90;99.90
13673;DHT22;6909;52.202;9.876;2022-11-24T07:24:25;7.00;99.90
13673;DHT22;6909;52.202;9.876;2022-11-24T07:26:51;7.00;99.90
13673;DHT22;6909;52.202;9.876;2022-11-24T07:29:18;7.10;99.90
13673;DHT22;6909;52.202;9.876;2022-11-24T07:31:45;7.20;99.90
13673;DHT22;6909;52.202;9.876;2022-11-24T07:34:11;7.30;99.90
13673;DHT22;6909;52.202;9.876;2022-11-24T07:36:40;7.40;99.90
13673;DHT22;6909;52.202;9.876;2022-11-24T07:39:09;7.40;99.90
13673;DHT22;6909;52.202;9.876;2022-11-24T07:41:36;7.50;99.90
13673;DHT22;6909;52.202;9.876;2022-11-24T07:44:03;7.50;99.90
13673;DHT22;6909;52.202;9.876;2022-11-24T07:46:30;7.50;99.90
13673;DHT22;6909;52.202;9.876;2022-11-24T07:48:56;7.60;99.90
13673;DHT22;6909;52.202;9.876;2022-11-24T07:51:23;7.60;99.90
13673;DHT22;6909;52.202;9.876;2022-11-24T07:53:51;7.60;99.90
13673;DHT22;6909;52.202;9.876;2022-11-24T07:56:18;7.70;99.90
13673;DHT22;6909;52.202;9.876;2022-11-24T07:58:44;7.80;99.90
13673;DHT22;6909;52.202;9.876;2022-11-24T08:01:13;7.90;99.90
13673;DHT22;6909;52.202;9.876;2022-11-24T08:03:40;7.90;99.90
13673;DHT22;6909;52.202;9.876;2022-11-24T08:06:08;7.90;99.90
13673;DHT22;6909;52.202;9.876;2022-11-24T08:08:35;8.00;99.90
13673;DHT22;6909;52.202;9.876;2022-11-24T08:11:07;8.00;99.90
13673;DHT22;6909;52.202;9.876;2022-11-24T08:13:34;8.00;99.90
13673;DHT22;6909;52.202;9.876;2022-11-24T08:16:05;8.00;99.90
13673;DHT22;6909;52.202;9.876;2022-11-24T08:18:32;8.00;99.90
13673;DHT22;6909;52.202;9.876;2022-11-24T08:20:59;8.00;99.90
13673;DHT22;6909;52.202;9.876;2022-11-24T08:23:27;8.10;99.90
13673;DHT22;6909;52.202;9.876;2022-11-24T08:25:54;8.10;99.90
13673;DHT22;6909;52.202;9.876;2022-11-24T08:28:23;8.20;99.90
13673;DHT22;6909;52.202;9.876;2022-11-24T08:30:50;8.50;99.90
13673;DHT22;6909;52.202;9.876;2022-11-24T08:33:16;8.60;99.90
13673;DHT22;6909;52.202;9.876;2022-11-24T08:35:43;8.60;99.90
13673;DHT22;6909;52.202;9.876;2022-11-24T08:38:10;8.50;99.90
13673;DHT22;6909;52.202;9.876;2022-11-24T08:40:36;8.40;99.90
13673;DHT22;6909;52.202;9.876;2022-11-24T08:43:03;8.30;99.90
13673;DHT22;6909;52.202;9.876;2022-11-24T08:45:31;8.20;99.90
13673;DHT22;6909;52.202;9.876;2022-11-24T08:47:58;8.10;99.90
13673;DHT22;6909;52.202;9.876;2022-11-24T08:50:25;8.00;99.90
13673;DHT22;6909;52.202;9.876;2022-11-24T08:52:52;8.00;99.90
13673;DHT22;6909;52.202;9.876;2022-11-24T08:55:19;7.90;99.90
13673;DHT22;6909;52.202;9.876;2022-11-24T08:57:46;7.90;99.90
13673;DHT22;6909;52.202;9.876;2022-11-24T09:00:13;7.90;99.90
13673;DHT22;6909;52.202;9.876;2022-11-24T09:02:53;8.10;99.90
13673;DHT22;6909;52.202;9.876;2022-11-24T09:05:20;8.40;99.90
13673;DHT22;6909;52.202;9.876;2022-11-24T09:07:47;8.60;99.90
13673;DHT22;6909;52.202;9.876;2022-11-24T09:10:14;8.90;99.90
13673;DHT22;6909;52.202;9.876;2022-11-24T09:12:42;9.30;99.90
13673;DHT22;6909;52.202;9.876;2022-11-24T09:15:09;9.40;99.90
13673;DHT22;6909;52.202;9.876;2022-11-24T09:17:36;9.50;99.90
13673;DHT22;6909;52.202;9.876;2022-11-24T09:20:08;9.60;99.90
13673;DHT22;6909;52.202;9.876;2022-11-24T09:22:34;9.80;99.90
13673;DHT22;6909;52.202;9.876;2022-11-24T09:25:03;9.70;99.90
13673;DHT22;6909;52.202;9.876;2022-11-24T09:27:29;9.50;99.90
13673;DHT22;6909;52.202;9.876;2022-11-24T09:29:56;9.50;99.90
13673;DHT22;6909;52.202;9.876;2022-11-24T09:32:23;9.50;99.90
13673;DHT22;6909;52.202;9.876;2022-11-24T09:34:50;9.40;99.90
13673;DHT22;6909;52.202;9.876;2022-11-24T09:37:18;9.40;99.90
13673;DHT22;6909;52.202;9.876;2022-11-24T09:39:45;9.30;99.90
13673;DHT22;6909;52.202;9.876;2022-11-24T09:42:13;9.40;99.90
13673;DHT22;6909;52.202;9.876;2022-11-24T09:45:13;9.30;99.90
13673;DHT22;6909;52.202;9.876;2022-11-24T09:47:57;9.40;99.90
13673;DHT22;6909;52.202;9.876;2022-11-24T09:50:26;9.50;99.90
13673;DHT22;6909;52.202;9.876;2022-11-24T09:52:58;9.50;99.90
13673;DHT22;6909;52.202;9.876;2022-11-24T09:55:34;9.50;99.90
13673;DHT22;6909;52.202;9.876;2022-11-24T09:58:10;9.50;99.90
13673;DHT22;6909;52.202;9.876;2022-11-24T10:00:38;9.60;99.90
13673;DHT22;6909;52.202;9.876;2022-11-24T10:03:07;9.60;99.90
13673;DHT22;6909;52.202;9.876;2022-11-24T10:05:38;9.70;99.90
13673;DHT22;6909;52.202;9.876;2022-11-24T10:08:19;9.70;99.90
13673;DHT22;6909;52.202;9.876;2022-11-24T10:10:53;9.70;99.90
13673;DHT22;6909;52.202;9.876;2022-11-24T10:13:40;9.80;99.90
13673;DHT22;6909;52.202;9.876;2022-11-24T10:16:16;9.80;99.90
13673;DHT22;6909;52.202;9.876;2022-11-24T10:18:54;9.90;99.90
13673;DHT22;6909;52.202;9.876;2022-11-24T10:21:33;9.90;99.90
13673;DHT22;6909;52.202;9.876;2022-11-24T10:24:17;9.80;99.90
13673;DHT22;6909;52.202;9.876;2022-11-24T10:26:50;9.70;99.90
13673;DHT22;6909;52.202;9.876;2022-11-24T10:29:25;9.60;99.90
13673;DHT22;6909;52.202;9.876;2022-11-24T10:31:55;9.60;99.90
13673;DHT22;6909;52.202;9.876;2022-11-24T10:34:26;9.60;99.90
13673;DHT22;6909;52.202;9.876;2022-11-24T10:36:57;9.70;99.90
13673;DHT22;6909;52.202;9.876;2022-11-24T10:39:33;9.90;99.90
13673;DHT22;6909;52.202;9.876;2022-11-24T10:42:04;10.10;99.90
13673;DHT22;6909;52.202;9.876;2022-11-24T10:44:33;10.40;99.90
13673;DHT22;6909;52.202;9.876;2022-11-24T10:46:59;10.70;99.90
13673;DHT22;6909;52.202;9.876;2022-11-24T10:49:29;10.80;99.90
13673;DHT22;6909;52.202;9.876;2022-11-24T10:52:04;11.10;99.90
13673;DHT22;6909;52.202;9.876;2022-11-24T10:54:33;11.50;99.90
13673;DHT22;6909;52.202;9.876;2022-11-24T10:57:01;11.70;99.90
13673;DHT22;6909;52.202;9.876;2022-11-24T10:59:31;11.80;99.90
13673;DHT22;6909;52.202;9.876;2022-11-24T11:01:58;11.60;99.90
13673;DHT22;6909;52.202;9.876;2022-11-24T11:04:27;11.50;99.90
13673;DHT22;6909;52.202;9.876;2022-11-24T11:07:16;11.20;99.90
13673;DHT22;6909;52.202;9.876;2022-11-24T11:09:45;10.80;99.90
13673;DHT22;6909;52.202;9.876;2022-11-24T11:12:19;10.50;99.90
13673;DHT22;6909;52.202;9.876;2022-11-24T11:14:46;10.40;99.90
13673;DHT22;6909;52.202;9.876;2022-11-24T11:17:33;10.30;99.90
13673;DHT22;6909;52.202;9.876;2022-11-24T11:20:02;10.10;99.90
13673;DHT22;6909;52.202;9.876;2022-11-24T11:22:32;10.20;99.90
13673;DHT22;6909;52.202;9.876;2022-11-24T11:25:18;10.20;99.90
13673;DHT22;6909;52.202;9.876;2022-11-24T11:27:46;10.40;99.90
13673;DHT22;6909;52.202;9.876;2022-11-24T11:30:22;10.50;99.90
13673;DHT22;6909;52.202;9.876;2022-11-24T11:32:52;10.60;99.90
13673;DHT22;6909;52.202;9.876;2022-11-24T11:35:20;10.70;99.90
13673;DHT22;6909;52.202;9.876;2022-11-24T11:37:48;11.00;99.90
13673;DHT22;6909;52.202;9.876;2022-11-24T11:40:19;11.20;99.90
13673;DHT22;6909;52.202;9.876;2022-11-24T11:42:49;11.30;99.90
13673;DHT22;6909;52.202;9.876;2022-11-24T11:45:21;11.30;99.90
13673;DHT22;6909;52.202;9.876;2022-11-24T11:47:52;11.20;99.90
13673;DHT22;6909;52.202;9.876;2022-11-24T11:50:22;11.20;99.90
13673;DHT22;6909;52.202;9.876;2022-11-24T11:53:01;11.10;99.90
13673;DHT22;6909;52.202;9.876;2022-11-24T11:55:42;11.00;99.90
13673;DHT22;6909;52.202;9.876;2022-11-24T11:58:29;10.90;99.90
13673;DHT22;6909;52.202;9.876;2022-11-24T12:01:04;10.80;99.90
13673;DHT22;6909;52.202;9.876;2022-11-24T12:03:49;10.80;99.90
13673;DHT22;6909;52.202;9.876;2022-11-24T12:06:30;10.80;99.90
13673;DHT22;6909;52.202;9.876;2022-11-24T12:09:11;10.70;99.90
13673;DHT22;6909;52.202;9.876;2022-11-24T12:11:58;10.80;99.90
13673;DHT22;6909;52.202;9.876;2022-11-24T12:14:32;10.80;99.90
13673;DHT22;6909;52.202;9.876;2022-11-24T12:17:07;10.80;99.90
13673;DHT22;6909;52.202;9.876;2022-11-24T12:19:48;10.90;99.90
13673;DHT22;6909;52.202;9.876;2022-11-24T12:22:23;11.00;99.90
13673;DHT22;6909;52.202;9.876;2022-11-24T12:25:00;11.00;99.90
13673;DHT22;6909;52.202;9.876;2022-11-24T12:27:37;11.00;99.90
13673;DHT22;6909;52.202;9.876;2022-11-24T12:30:11;10.90;99.90
13673;DHT22;6909;52.202;9.876;2022-11-24T12:33:02;10.80;99.90
13673;DHT22;6909;52.202;9.876;2022-11-24T12:35:35;10.80;99.90
13673;DHT22;6909;52.202;9.876;2022-11-24T12:38:14;10.70;99.90
13673;DHT22;6909;52.202;9.876;2022-11-24T12:41:04;10.70;99.90
13673;DHT22;6909;52.202;9.876;2022-11-24T12:43:35;10.60;99.90
13673;DHT22;6909;52.202;9.876;2022-11-24T12:46:08;10.70;99.90
13673;DHT22;6909;52.202;9.876;2022-11-24T12:48:44;10.70;99.90
13673;DHT22;6909;52.202;9.876;2022-11-24T12:51:17;10.70;99.90
13673;DHT22;6909;52.202;9.876;2022-11-24T12:53:46;10.60;99.90
13673;DHT22;6909;52.202;9.876;2022-11-24T12:56:16;10.60;99.90
13673;DHT22;6909;52.202;9.876;2022-11-24T12:58:51;10.50;99.90
13673;DHT22;6909;52.202;9.876;2022-11-24T13:01:27;10.50;99.90
13673;DHT22;6909;52.202;9.876;2022-11-24T13:04:04;10.50;99.90
13673;DHT22;6909;52.202;9.876;2022-11-24T13:06:40;10.50;99.90
13673;DHT22;6909;52.202;9.876;2022-11-24T13:09:11;10.40;99.90
13673;DHT22;6909;52.202;9.876;2022-11-24T13:11:42;10.40;99.90
13673;DHT22;6909;52.202;9.876;2022-11-24T13:14:20;10.30;99.90
13673;DHT22;6909;52.202;9.876;2022-11-24T13:16:55;10.20;99.90
13673;DHT22;6909;52.202;9.876;2022-11-24T13:19:23;10.20;99.90
13673;DHT22;6909;52.202;9.876;2022-11-24T13:22:13;10.00;99.90
13673;DHT22;6909;52.202;9.876;2022-11-24T13:24:41;10.00;99.90
13673;DHT22;6909;52.202;9.876;2022-11-24T13:27:39;9.80;99.90
13673;DHT22;6909;52.202;9.876;2022-11-24T13:33:34;9.80;99.90
13673;DHT22;6909;52.202;9.876;2022-11-24T13:36:29;9.80;99.90
13673;DHT22;6909;52.202;9.876;2022-11-24T13:38:58;9.80;99.90
13673;DHT22;6909;52.202;9.876;2022-11-24T13:44:52;9.90;99.90
13673;DHT22;6909;52.202;9.876;2022-11-24T13:47:34;9.90;99.90
13673;DHT22;6909;52.202;9.876;2022-11-24T13:50:04;9.80;99.90
13673;DHT22;6909;52.202;9.876;2022-11-24T13:52:44;9.80;99.90
13673;DHT22;6909;52.202;9.876;2022-11-24T13:55:20;9.70;99.90
13673;DHT22;6909;52.202;9.876;2022-11-24T13:57:50;9.70;99.90
13673;DHT22;6909;52.202;9.876;2022-11-24T14:00:19;9.70;99.90
13673;DHT22;6909;52.202;9.876;2022-11-24T14:02:47;9.60;99.90
13673;DHT22;6909;52.202;9.876;2022-11-24T14:05:17;9.60;99.90
13673;DHT22;6909;52.202;9.876;2022-11-24T14:07:46;9.60;99.90
13673;DHT22;6909;52.202;9.876;2022-11-24T14:10:15;9.50;99.90
13673;DHT22;6909;52.202;9.876;2022-11-24T14:12:42;9.50;99.90
13673;DHT22;6909;52.202;9.876;2022-11-24T14:15:23;9.50;99.90
13673;DHT22;6909;52.202;9.876;2022-11-24T14:17:51;9.40;99.90
13673;DHT22;6909;52.202;9.876;2022-11-24T14:20:23;9.30;99.90
13673;DHT22;6909;52.202;9.876;2022-11-24T14:22:51;9.40;99.90
13673;DHT22;6909;52.202;9.876;2022-11-24T14:25:24;9.40;99.90
13673;DHT22;6909;52.202;9.876;2022-11-24T14:27:52;9.40;99.90
13673;DHT22;6909;52.202;9.876;2022-11-24T14:30:20;9.40;99.90
13673;DHT22;6909;52.202;9.876;2022-11-24T14:32:54;9.30;99.90
13673;DHT22;6909;52.202;9.876;2022-11-24T14:35:25;9.30;99.90
13673;DHT22;6909;52.202;9.876;2022-11-24T14:37:52;9.30;99.90
13673;DHT22;6909;52.202;9.876;2022-11-24T14:40:38;9.30;99.90
13673;DHT22;6909;52.202;9.876;2022-11-24T14:43:17;9.30;99.90
13673;DHT22;6909;52.202;9.876;2022-11-24T14:45:49;9.20;99.90
13673;DHT22;6909;52.202;9.876;2022-11-24T14:48:17;9.10;99.90
13673;DHT22;6909;52.202;9.876;2022-11-24T14:50:47;9.10;99.90
13673;DHT22;6909;52.202;9.876;2022-11-24T14:53:15;9.10;99.90
13673;DHT22;6909;52.202;9.876;2022-11-24T14:55:43;9.00;99.90
13673;DHT22;6909;52.202;9.876;2022-11-24T14:58:26;9.00;99.90
13673;DHT22;6909;52.202;9.876;2022-11-24T15:01:09;8.90;99.90
13673;DHT22;6909;52.202;9.876;2022-11-24T15:03:35;8.80;99.90
13673;DHT22;6909;52.202;9.876;2022-11-24T15:06:15;8.80;99.90
13673;DHT22;6909;52.202;9.876;2022-11-24T15:08:45;8.80;99.90
13673;DHT22;6909;52.202;9.876;2022-11-24T15:11:12;8.80;99.90
13673;DHT22;6909;52.202;9.876;2022-11-24T15:13:39;8.70;99.90
13673;DHT22;6909;52.202;9.876;2022-11-24T15:16:18;8.60;99.90
13673;DHT22;6909;52.202;9.876;2022-11-24T15:18:47;8.60;99.90
13673;DHT22;6909;52.202;9.876;2022-11-24T15:21:29;8.50;99.90
13673;DHT22;6909;52.202;9.876;2022-11-24T15:24:13;8.40;99.90
13673;DHT22;6909;52.202;9.876;2022-11-24T15:26:40;8.30;99.90
13673;DHT22;6909;52.202;9.876;2022-11-24T15:29:07;8.30;99.90
13673;DHT22;6909;52.202;9.876;2022-11-24T15:31:34;8.30;99.90
13673;DHT22;6909;52.202;9.876;2022-11-24T15:34:01;8.30;99.90
13673;DHT22;6909;52.202;9.876;2022-11-24T15:36:29;8.30;99.90
13673;DHT22;6909;52.202;9.876;2022-11-24T15:38:56;8.20;99.90
13673;DHT22;6909;52.202;9.876;2022-11-24T15:41:27;8.20;99.90
13673;DHT22;6909;52.202;9.876;2022-11-24T15:43:54;8.10;99.90
13673;DHT22;6909;52.202;9.876;2022-11-24T15:46:24;8.00;99.90
13673;DHT22;6909;52.202;9.876;2022-11-24T15:48:50;8.00;99.90
13673;DHT22;6909;52.202;9.876;2022-11-24T15:51:18;7.90;99.90
13673;DHT22;6909;52.202;9.876;2022-11-24T15:53:50;7.90;99.90
13673;DHT22;6909;52.202;9.876;2022-11-24T15:56:22;7.90;99.90
13673;DHT22;6909;52.202;9.876;2022-11-24T15:58:49;7.80;99.90
13673;DHT22;6909;52.202;9.876;2022-11-24T16:01:16;7.80;99.90
13673;DHT22;6909;52.202;9.876;2022-11-24T16:03:43;7.70;99.90
13673;DHT22;6909;52.202;9.876;2022-11-24T16:06:12;7.70;99.90
13673;DHT22;6909;52.202;9.876;2022-11-24T16:08:39;7.70;99.90
13673;DHT22;6909;52.202;9.876;2022-11-24T16:11:07;7.70;99.90
13673;DHT22;6909;52.202;9.876;2022-11-24T16:13:34;7.70;99.90
13673;DHT22;6909;52.202;9.876;2022-11-24T16:16:01;7.70;99.90
13673;DHT22;6909;52.202;9.876;2022-11-24T16:18:28;7.60;99.90
13673;DHT22;6909;52.202;9.876;2022-11-24T16:20:56;7.60;99.90
13673;DHT22;6909;52.202;9.876;2022-11-24T16:23:23;7.70;99.90